| time (UTC) | temp C | wind direction | speed KPH | gust KPH | rain 1hr cm | rain 24hr cm | rain mn cm | humidity % | barometer mb |
| 20260508001522 | 14 | 293 | 0.0 | 12.9 | 0.00 | 0.00 | 0.00 | 40 | 1009.8 |
| 20260508000021 | 15 | 310 | 8.0 | 20.9 | 0.00 | 0.00 | 0.00 | 40 | 1009.5 |
| 20260507234519 | 15 | 306 | 12.9 | 27.4 | 0.00 | 0.00 | 0.00 | 39 | 1009.2 |
| 20260507233031 | 15 | 248 | 9.7 | 19.3 | 0.00 | 0.00 | 0.00 | 39 | 1009.0 |
| 20260507231518 | 16 | 301 | 16.1 | 25.7 | 0.00 | 0.00 | 0.00 | 39 | 1009.0 |
| 20260507230017 | 16 | 272 | 9.7 | 25.7 | 0.00 | 0.00 | 0.00 | 38 | 1008.8 |
| 20260507224517 | 16 | 262 | 20.9 | 32.2 | 0.00 | 0.00 | 0.00 | 39 | 1008.5 |
| 20260507223016 | 16 | 290 | 14.5 | 25.7 | 0.00 | 0.00 | 0.00 | 38 | 1008.4 |
| 20260507221520 | 17 | 318 | 11.3 | 30.6 | 0.00 | 0.00 | 0.00 | 39 | 1008.2 |
| 20260507220015 | 18 | 319 | 8.0 | 22.5 | 0.00 | 0.00 | 0.00 | 35 | 1007.9 |
| 20260507214516 | 18 | 339 | 12.9 | 24.1 | 0.00 | 0.00 | 0.00 | 33 | 1007.9 |
| 20260507213019 | 18 | 326 | 9.7 | 24.1 | 0.00 | 0.00 | 0.00 | 37 | 1007.6 |
| 20260507211513 | 18 | 320 | 19.3 | 27.4 | 0.00 | 0.00 | 0.00 | 32 | 1007.7 |
| 20260507210012 | 19 | 342 | 9.7 | 22.5 | 0.00 | 0.00 | 0.00 | 34 | 1007.4 |
| 20260507204518 | 19 | 292 | 8.0 | 27.4 | 0.00 | 0.00 | 0.00 | 38 | 1007.6 |
| 20260507203011 | 19 | 323 | 19.3 | 32.2 | 0.00 | 0.00 | 0.00 | 34 | 1007.6 |
| 20260507201515 | 20 | 349 | 8.0 | 19.3 | 0.00 | 0.00 | 0.00 | 35 | 1007.7 |
| 20260507200012 | 19 | 266 | 9.7 | 29.0 | 0.00 | 0.00 | 0.00 | 35 | 1007.7 |
| 20260507194510 | 20 | 303 | 6.4 | 25.7 | 0.00 | 0.00 | 0.00 | 34 | 1007.8 |
| 20260507193013 | 20 | 251 | 12.9 | 24.1 | 0.00 | 0.00 | 0.00 | 34 | 1007.9 |
| 20260507191512 | 20 | 289 | 16.1 | 22.5 | 0.00 | 0.00 | 0.00 | 33 | 1007.7 |
| 20260507190006 | 20 | 305 | 11.3 | 22.5 | 0.00 | 0.00 | 0.00 | 34 | 1007.9 |
| 20260507184505 | 20 | 283 | 14.5 | 25.7 | 0.00 | 0.00 | 0.00 | 34 | 1007.9 |
| 20260507183003 | 20 | 283 | 14.5 | 29.0 | 0.00 | 0.00 | 0.00 | 36 | 1008.0 |
| 20260507181616 | 19 | 279 | 19.3 | 29.0 | 0.00 | 0.00 | 0.00 | 36 | 1008.0 |
| 20260507180100 | 19 | 219 | 8.0 | 30.6 | 0.00 | 0.00 | 0.00 | 36 | 1008.2 |
| 20260507174602 | 19 | 102 | 11.3 | 22.5 | 0.00 | 0.00 | 0.00 | 38 | 1008.3 |
| 20260507173129 | 19 | 354 | 9.7 | 20.9 | 0.00 | 0.00 | 0.00 | 43 | 1008.6 |
| 20260507171604 | 19 | 304 | 9.7 | 24.1 | 0.00 | 0.00 | 0.00 | 40 | 1008.9 |
| 20260507170107 | 18 | 242 | 11.3 | 29.0 | 0.00 | 0.00 | 0.00 | 43 | 1009.1 |
| 20260507164554 | 18 | 285 | 12.9 | 25.7 | 0.00 | 0.00 | 0.00 | 45 | 1009.4 |
| 20260507163047 | 18 | 327 | 16.1 | 25.7 | 0.00 | 0.00 | 0.00 | 44 | 1009.7 |
| 20260507161557 | 18 | 326 | 6.4 | 22.5 | 0.00 | 0.00 | 0.00 | 43 | 1009.9 |
| 20260507160002 | 17 | 276 | 14.5 | 25.7 | 0.00 | 0.00 | 0.00 | 47 | 1010.0 |
| 20260507154559 | 17 | 26 | 6.4 | 22.5 | 0.00 | 0.00 | 0.00 | 49 | 1010.3 |
| 20260507153059 | 16 | 284 | 4.8 | 14.5 | 0.00 | 0.00 | 0.00 | 48 | 1010.5 |
| 20260507151555 | 15 | 278 | 4.8 | 14.5 | 0.00 | 0.00 | 0.00 | 53 | 1010.7 |
| 20260507150058 | 15 | 313 | 11.3 | 24.1 | 0.00 | 0.00 | 0.00 | 51 | 1011.0 |
| 20260507144551 | 14 | 319 | 8.0 | 16.1 | 0.00 | 0.00 | 0.00 | 55 | 1011.4 |
| 20260507143047 | 13 | 343 | 4.8 | 12.9 | 0.00 | 0.00 | 0.00 | 54 | 1011.7 |
| 20260507141551 | 13 | 285 | 6.4 | 14.5 | 0.00 | 0.00 | 0.00 | 59 | 1011.8 |
| 20260507140038 | 11 | 104 | 0.0 | 4.8 | 0.00 | 0.00 | 0.00 | 61 | 1012.1 |
| 20260507134535 | 11 | 4 | 0.0 | 6.4 | 0.00 | 0.00 | 0.00 | 61 | 1012.4 |
| 20260507133035 | 11 | 26 | 1.6 | 8.0 | 0.00 | 0.00 | 0.00 | 62 | 1012.5 |
| 20260507131537 | 11 | 33 | 3.2 | 9.7 | 0.00 | 0.00 | 0.00 | 65 | 1012.5 |
| 20260507130031 | 10 | 27 | 6.4 | 11.3 | 0.00 | 0.00 | 0.00 | 70 | 1012.6 |
| 20260507124530 | 10 | 11 | 4.8 | 6.4 | 0.00 | 0.08 | 0.00 | 71 | 1012.7 |
| 20260507123037 | 10 | 4 | 1.6 | 3.2 | 0.00 | 0.08 | 0.00 | 75 | 1012.7 |
| 20260507121527 | 10 | 338 | 3.2 | 6.4 | 0.00 | 0.08 | 0.00 | 73 | 1012.7 |
| 20260507120127 | 10 | 35 | 3.2 | 12.9 | 0.00 | 0.08 | 0.00 | 74 | 1012.4 |
| 20260507114523 | 10 | 10 | 4.8 | 12.9 | 0.00 | 0.10 | 0.00 | 73 | 1012.3 |
| 20260507113036 | 10 | 25 | 4.8 | 9.7 | 0.00 | 0.10 | 0.00 | 74 | 1012.2 |
| 20260507111519 | 10 | 4 | 3.2 | 8.0 | 0.00 | 0.10 | 0.00 | 74 | 1012.1 |
| 20260507110017 | 10 | 318 | 3.2 | 6.4 | 0.00 | 0.10 | 0.00 | 78 | 1011.9 |
| 20260507104516 | 10 | 15 | 0.0 | 4.8 | 0.00 | 0.13 | 0.00 | 78 | 1011.8 |
| 20260507103013 | 10 | 344 | 3.2 | 8.0 | 0.00 | 0.13 | 0.00 | 81 | 1011.5 |
| 20260507101512 | 10 | 276 | 3.2 | 6.4 | 0.00 | 0.13 | 0.00 | 81 | 1011.3 |
| 20260507100015 | 10 | 17 | 3.2 | 4.8 | 0.00 | 0.13 | 0.00 | 81 | 1010.9 |
| 20260507094510 | 10 | 331 | 0.0 | 6.4 | 0.00 | 0.13 | 0.00 | 82 | 1010.9 |
| 20260507093010 | 10 | 350 | 3.2 | 9.7 | 0.00 | 0.13 | 0.00 | 83 | 1011.0 |
| 20260507091508 | 10 | 348 | 3.2 | 4.8 | 0.00 | 0.13 | 0.00 | 86 | 1011.1 |
| 20260507090008 | 10 | 359 | 3.2 | 6.4 | 0.00 | 0.13 | 0.00 | 87 | 1010.7 |
| 20260507084510 | 10 | 304 | 1.6 | 4.8 | 0.00 | 0.13 | 0.00 | 86 | 1010.9 |
| 20260507083007 | 10 | 272 | 1.6 | 4.8 | 0.00 | 0.13 | 0.00 | 85 | 1011.1 |
| 20260507081506 | 10 | 281 | 1.6 | 3.2 | 0.00 | 0.13 | 0.00 | 84 | 1010.9 |
| 20260507080004 | 10 | 281 | 1.6 | 3.2 | 0.00 | 0.13 | 0.00 | 83 | 1010.9 |
| 20260507074502 | 10 | 272 | 1.6 | 4.8 | 0.00 | 0.13 | 0.00 | 83 | 1010.7 |
| 20260507073136 | 10 | 301 | 0.0 | 3.2 | 0.00 | 0.13 | 0.00 | 82 | 1010.5 |
| 20260507071559 | 10 | 347 | 1.6 | 3.2 | 0.00 | 0.13 | 0.00 | 81 | 1010.6 |
| 20260507070058 | 11 | 295 | 0.0 | 4.8 | 0.00 | 0.13 | 0.00 | 81 | 1010.8 |
| 20260507064610 | 11 | 4 | 1.6 | 3.2 | 0.00 | 0.13 | 0.00 | 80 | 1010.4 |
| 20260507063103 | 11 | 21 | 1.6 | 6.4 | 0.00 | 0.13 | 0.00 | 79 | 1010.7 |
| 20260507061554 | 11 | 16 | 1.6 | 6.4 | 0.00 | 0.13 | 0.00 | 80 | 1011.1 |
| 20260507060053 | 11 | 56 | 1.6 | 6.4 | 0.00 | 0.13 | 0.00 | 78 | 1011.2 |
| 20260507054553 | 11 | 312 | 1.6 | 8.0 | 0.00 | 0.13 | 0.00 | 77 | 1011.2 |
| 20260507053052 | 11 | 4 | 3.2 | 14.5 | 0.00 | 0.13 | 0.00 | 77 | 1011.2 |
| 20260507051550 | 11 | 25 | 3.2 | 14.5 | 0.00 | 0.13 | 0.00 | 78 | 1011.2 |
| 20260507050053 | 11 | 8 | 8.0 | 17.7 | 0.00 | 0.13 | 0.00 | 79 | 1011.0 |
| 20260507044548 | 11 | 31 | 9.7 | 19.3 | 0.00 | 0.13 | 0.00 | 80 | 1010.8 |
| 20260507043048 | 11 | 47 | 9.7 | 20.9 | 0.00 | 0.13 | 0.00 | 81 | 1010.5 |
| 20260507041545 | 11 | 39 | 9.7 | 17.7 | 0.00 | 0.13 | 0.00 | 81 | 1010.5 |
| 20260507040037 | 12 | 41 | 4.8 | 17.7 | 0.00 | 0.13 | 0.00 | 82 | 1010.6 |
| 20260507034543 | 12 | 48 | 3.2 | 8.0 | 0.00 | 0.13 | 0.13 | 83 | 1010.0 |
| 20260507033044 | 12 | 35 | 6.4 | 29.0 | 0.00 | 0.13 | 0.13 | 82 | 1010.9 |
| 20260507031531 | 12 | 45 | 16.1 | 24.1 | 0.00 | 0.13 | 0.13 | 82 | 1010.1 |
| 20260507030027 | 13 | 26 | 6.4 | 14.5 | 0.00 | 0.13 | 0.13 | 82 | 1010.6 |
| 20260507024530 | 13 | 31 | 3.2 | 16.1 | 0.00 | 0.13 | 0.13 | 81 | 1010.6 |
| 20260507023023 | 13 | 31 | 6.4 | 9.7 | 0.00 | 0.13 | 0.13 | 81 | 1010.1 |
| 20260507021520 | 13 | 324 | 1.6 | 4.8 | 0.00 | 0.13 | 0.13 | 81 | 1010.0 |
| 20260507020019 | 13 | 21 | 8.0 | 12.9 | 0.00 | 0.13 | 0.13 | 80 | 1009.7 |
| 20260507014521 | 13 | 341 | 3.2 | 16.1 | 0.00 | 0.13 | 0.13 | 80 | 1009.4 |
| 20260507013015 | 14 | 25 | 3.2 | 16.1 | 0.00 | 0.13 | 0.13 | 80 | 1009.2 |
| 20260507011514 | 14 | 52 | 6.4 | 14.5 | 0.00 | 0.13 | 0.13 | 80 | 1009.1 |
| 20260507010027 | 14 | 21 | 11.3 | 16.1 | 0.00 | 0.13 | 0.13 | 80 | 1009.2 |
| 20260507004513 | 15 | 29 | 8.0 | 16.1 | 0.00 | 0.13 | 0.13 | 79 | 1008.7 |
| 20260507003011 | 15 | 53 | 6.4 | 20.9 | 0.00 | 0.13 | 0.13 | 79 | 1008.8 |